createdAt,value
2017-09-23T00:00:52.104Z,11.60
2017-09-23T00:03:19.740Z,11.70
2017-09-23T00:05:47.379Z,11.60
2017-09-23T00:08:15.055Z,11.60
2017-09-23T00:10:42.639Z,11.70
2017-09-23T00:13:10.232Z,11.70
2017-09-23T00:15:37.791Z,11.60
2017-09-23T00:18:05.344Z,11.50
2017-09-23T00:20:32.999Z,11.60
2017-09-23T00:23:02.066Z,11.60
2017-09-23T00:25:30.340Z,11.50
2017-09-23T00:27:58.331Z,11.50
2017-09-23T00:30:27.502Z,11.60
2017-09-23T00:32:56.419Z,11.50
2017-09-23T00:35:26.041Z,11.50
2017-09-23T00:37:55.418Z,11.50
2017-09-23T00:40:24.099Z,11.50
2017-09-23T00:42:52.171Z,11.50
2017-09-23T00:45:19.967Z,11.40
2017-09-23T00:47:48.371Z,11.40
2017-09-23T00:50:15.914Z,11.40
2017-09-23T00:52:43.488Z,11.40
2017-09-23T00:55:11.031Z,11.40
2017-09-23T00:57:38.627Z,11.40
2017-09-23T01:00:06.851Z,11.40
2017-09-23T01:02:34.779Z,11.40
2017-09-23T01:05:03.081Z,11.50
2017-09-23T01:07:31.463Z,11.60
2017-09-23T01:10:00.469Z,11.60
2017-09-23T01:12:29.727Z,11.60
2017-09-23T01:14:58.691Z,11.70
2017-09-23T01:17:29.148Z,11.70
2017-09-23T01:19:58.841Z,11.70
2017-09-23T01:22:29.473Z,11.80
2017-09-23T01:25:00.122Z,11.80
2017-09-23T01:27:30.138Z,11.70
2017-09-23T01:30:00.760Z,11.60
2017-09-23T01:32:30.324Z,11.60
2017-09-23T01:35:01.615Z,11.60
2017-09-23T01:37:30.873Z,11.60
2017-09-23T01:40:01.388Z,11.50
2017-09-23T01:42:30.357Z,11.50
2017-09-23T01:45:01.076Z,11.60
2017-09-23T01:47:30.184Z,11.60
2017-09-23T01:50:00.315Z,11.60
2017-09-23T01:52:32.196Z,11.50
2017-09-23T01:55:02.090Z,11.50
2017-09-23T01:57:35.579Z,11.60
2017-09-23T02:00:04.087Z,11.50
2017-09-23T02:02:32.932Z,11.50
2017-09-23T02:05:01.064Z,11.50
2017-09-23T02:07:30.769Z,11.50
2017-09-23T02:10:01.392Z,11.40
2017-09-23T02:12:31.319Z,11.50
2017-09-23T02:15:02.653Z,11.50
2017-09-23T02:17:30.966Z,11.50
2017-09-23T02:20:01.068Z,11.50
2017-09-23T02:22:30.526Z,11.50
2017-09-23T02:25:00.262Z,11.60
2017-09-23T02:27:30.587Z,11.50
2017-09-23T02:30:03.525Z,11.50
2017-09-23T02:32:32.596Z,11.30
2017-09-23T02:35:01.032Z,11.30
2017-09-23T02:37:32.859Z,11.20
2017-09-23T02:40:02.439Z,11.30
2017-09-23T02:42:31.925Z,11.30
2017-09-23T02:45:02.495Z,11.50
2017-09-23T02:47:33.695Z,11.50
2017-09-23T02:50:06.209Z,11.60
2017-09-23T02:52:36.662Z,11.50
2017-09-23T02:55:04.653Z,11.50
2017-09-23T02:57:33.078Z,11.60
2017-09-23T03:00:01.816Z,11.60
2017-09-23T03:02:33.644Z,11.50
2017-09-23T03:05:02.670Z,11.50
2017-09-23T03:07:31.291Z,11.50
2017-09-23T03:10:09.229Z,11.50
2017-09-23T03:12:37.902Z,11.40
2017-09-23T03:15:07.104Z,11.40
2017-09-23T03:17:37.537Z,11.30
2017-09-23T03:20:07.226Z,11.20
2017-09-23T03:22:37.056Z,11.10
2017-09-23T03:25:07.835Z,11.20
2017-09-23T03:27:36.905Z,11.20
2017-09-23T03:30:06.376Z,11.30
2017-09-23T03:32:35.758Z,11.30
2017-09-23T03:35:11.967Z,11.20
2017-09-23T03:37:40.771Z,11.30
2017-09-23T03:40:30.779Z,11.20
2017-09-23T03:43:04.831Z,11.20
2017-09-23T03:45:41.010Z,11.10
2017-09-23T03:48:08.626Z,11.00
2017-09-23T03:50:37.084Z,11.10
2017-09-23T03:53:06.432Z,11.10
2017-09-23T03:55:34.426Z,11.00
2017-09-23T03:58:02.635Z,10.80
2017-09-23T04:00:30.825Z,10.90
2017-09-23T04:03:01.764Z,10.90
2017-09-23T04:05:30.838Z,11.00
2017-09-23T04:08:00.705Z,10.90
2017-09-23T04:10:30.020Z,10.90
2017-09-23T04:13:00.371Z,10.70
2017-09-23T04:15:29.648Z,10.70
2017-09-23T04:17:59.536Z,10.80
2017-09-23T04:20:29.295Z,11.00
2017-09-23T04:22:59.506Z,11.00
2017-09-23T04:25:28.609Z,11.00
2017-09-23T04:27:58.698Z,11.00
2017-09-23T04:30:28.172Z,10.90
2017-09-23T04:32:57.912Z,10.80
2017-09-23T04:35:27.413Z,10.80
2017-09-23T04:37:56.667Z,10.80
2017-09-23T04:40:28.707Z,10.80
2017-09-23T04:42:57.525Z,10.80
2017-09-23T04:45:28.565Z,10.90
2017-09-23T04:47:57.077Z,10.90
2017-09-23T04:50:26.573Z,10.90
2017-09-23T04:52:55.628Z,10.90
2017-09-23T04:55:24.905Z,10.90
2017-09-23T04:57:52.600Z,10.90
2017-09-23T05:00:20.272Z,11.00
2017-09-23T05:02:47.879Z,11.10
2017-09-23T05:05:15.479Z,11.00
2017-09-23T05:07:43.019Z,11.10
2017-09-23T05:10:10.596Z,11.00
2017-09-23T05:12:38.127Z,11.00
2017-09-23T05:15:05.816Z,11.10
2017-09-23T05:17:33.524Z,11.00
2017-09-23T05:20:01.487Z,11.00
2017-09-23T05:22:29.722Z,11.00
2017-09-23T05:24:58.023Z,11.00
2017-09-23T05:27:25.852Z,11.00
2017-09-23T05:29:53.535Z,11.00
2017-09-23T05:32:21.160Z,11.10
2017-09-23T05:34:48.742Z,11.20
2017-09-23T05:37:16.275Z,11.10
2017-09-23T05:39:43.843Z,11.10
2017-09-23T05:42:12.151Z,11.20
2017-09-23T05:44:39.723Z,11.20
2017-09-23T05:47:07.264Z,11.20
2017-09-23T05:49:34.853Z,11.30
2017-09-23T05:52:03.495Z,11.30
2017-09-23T05:54:31.119Z,11.30
2017-09-23T05:56:59.063Z,11.20
2017-09-23T05:59:26.795Z,11.20
2017-09-23T06:01:55.611Z,11.10
2017-09-23T06:04:24.596Z,11.10
2017-09-23T06:06:52.400Z,11.10
2017-09-23T06:09:20.003Z,11.10
2017-09-23T06:11:47.554Z,11.20
2017-09-23T06:14:15.100Z,11.10
2017-09-23T06:16:42.671Z,11.10
2017-09-23T06:19:10.215Z,11.00
2017-09-23T06:21:38.286Z,11.10
2017-09-23T06:24:06.227Z,11.10
2017-09-23T06:26:34.457Z,11.10
2017-09-23T06:29:02.921Z,11.20
2017-09-23T06:31:30.738Z,11.20
2017-09-23T06:33:58.748Z,11.30
2017-09-23T06:36:28.374Z,11.30
2017-09-23T06:38:57.820Z,11.40
2017-09-23T06:41:26.673Z,11.40
2017-09-23T06:43:54.736Z,11.60
2017-09-23T06:46:22.763Z,11.70
2017-09-23T06:48:50.597Z,11.60
2017-09-23T06:51:18.279Z,11.80
2017-09-23T06:53:45.882Z,11.90
2017-09-23T06:56:13.424Z,12.00
2017-09-23T06:58:41.135Z,12.10
2017-09-23T07:01:08.753Z,12.20
2017-09-23T07:03:36.336Z,12.30
2017-09-23T07:06:03.979Z,12.40
2017-09-23T07:08:32.532Z,12.70
2017-09-23T07:11:01.168Z,12.80
2017-09-23T07:13:28.819Z,12.70
2017-09-23T07:15:56.716Z,12.90
2017-09-23T07:18:24.491Z,13.00
2017-09-23T07:20:52.179Z,13.10
2017-09-23T07:23:19.798Z,13.20
2017-09-23T07:25:47.363Z,13.30
2017-09-23T07:28:14.947Z,13.30
2017-09-23T07:30:42.489Z,13.30
2017-09-23T07:33:10.092Z,13.30
2017-09-23T07:35:37.644Z,13.40
2017-09-23T07:38:05.340Z,13.40
2017-09-23T07:40:33.030Z,13.50
2017-09-23T07:43:00.965Z,13.50
2017-09-23T07:45:28.873Z,13.70
2017-09-23T07:47:56.875Z,13.70
2017-09-23T07:50:24.632Z,13.90
2017-09-23T07:52:52.514Z,13.80
2017-09-23T07:55:20.237Z,13.90
2017-09-23T07:57:47.919Z,13.80
2017-09-23T08:00:15.480Z,13.80
2017-09-23T08:02:43.056Z,13.90
2017-09-23T08:05:11.375Z,13.90
2017-09-23T08:07:39.725Z,14.00
2017-09-23T08:10:07.280Z,14.00
2017-09-23T08:12:35.003Z,13.90
2017-09-23T08:15:02.847Z,14.00
2017-09-23T08:17:30.499Z,14.00
2017-09-23T08:19:58.564Z,14.00
2017-09-23T08:22:26.498Z,14.10
2017-09-23T08:24:54.222Z,14.20
2017-09-23T08:27:22.732Z,14.60
2017-09-23T08:29:50.332Z,14.60
2017-09-23T08:32:18.737Z,14.90
2017-09-23T08:34:46.312Z,14.90
2017-09-23T08:37:13.908Z,15.00
2017-09-23T08:39:42.198Z,15.30
2017-09-23T08:42:09.740Z,15.30
2017-09-23T08:44:37.363Z,15.40
2017-09-23T08:47:05.760Z,15.50
2017-09-23T08:49:33.552Z,15.50
2017-09-23T08:52:01.231Z,15.60
2017-09-23T08:54:28.869Z,15.80
2017-09-23T08:56:56.528Z,15.80
2017-09-23T08:59:24.473Z,15.90
2017-09-23T09:01:52.023Z,16.10
2017-09-23T09:04:20.384Z,16.20
2017-09-23T09:06:48.004Z,16.20
2017-09-23T09:09:15.579Z,16.20
2017-09-23T09:11:43.128Z,16.30
2017-09-23T09:14:10.711Z,16.50
2017-09-23T09:16:38.243Z,16.60
2017-09-23T09:19:05.823Z,16.70
2017-09-23T09:21:33.397Z,16.80
2017-09-23T09:24:01.783Z,17.00
2017-09-23T09:26:29.448Z,16.90
2017-09-23T09:28:57.298Z,17.00
2017-09-23T09:31:24.896Z,17.00
2017-09-23T09:33:52.503Z,17.10
2017-09-23T09:36:20.076Z,17.20
2017-09-23T09:38:47.746Z,17.30
2017-09-23T09:41:15.299Z,17.30
2017-09-23T09:43:42.880Z,17.40
2017-09-23T09:46:10.418Z,17.50
2017-09-23T09:48:38.003Z,17.60
2017-09-23T09:51:05.541Z,17.60
2017-09-23T09:53:33.146Z,17.70
2017-09-23T09:56:00.717Z,17.70
2017-09-23T09:58:28.421Z,17.70
2017-09-23T10:00:56.868Z,17.90
2017-09-23T10:03:24.499Z,17.90
2017-09-23T10:05:52.041Z,17.80
2017-09-23T10:08:19.628Z,17.90
2017-09-23T10:10:47.165Z,17.90
2017-09-23T10:13:15.493Z,18.00
2017-09-23T10:15:43.038Z,18.00
2017-09-23T10:18:10.616Z,18.00
2017-09-23T10:20:38.913Z,18.10
2017-09-23T10:23:06.790Z,18.10
2017-09-23T10:25:34.327Z,18.10
2017-09-23T10:28:01.965Z,18.30
2017-09-23T10:30:29.620Z,18.40
2017-09-23T10:32:57.192Z,18.40
2017-09-23T10:35:24.812Z,18.40
2017-09-23T10:37:52.379Z,18.50
2017-09-23T10:40:19.966Z,18.50
2017-09-23T10:42:47.528Z,18.60
2017-09-23T10:45:15.124Z,18.70
2017-09-23T10:47:42.671Z,18.70
2017-09-23T10:50:10.248Z,18.70
2017-09-23T10:52:37.774Z,18.70
2017-09-23T10:55:06.123Z,18.90
2017-09-23T10:57:34.447Z,18.90
2017-09-23T11:00:02.054Z,18.90
2017-09-23T11:02:29.618Z,19.00
2017-09-23T11:04:57.191Z,19.00
2017-09-23T11:07:24.779Z,19.10
2017-09-23T11:09:53.139Z,19.10
2017-09-23T11:12:21.565Z,19.10
2017-09-23T11:14:49.145Z,19.10
2017-09-23T11:17:16.686Z,19.20
2017-09-23T11:19:44.263Z,19.20
2017-09-23T11:22:11.811Z,19.20
2017-09-23T11:24:39.392Z,19.20
2017-09-23T11:27:06.952Z,19.30
2017-09-23T11:29:35.663Z,19.40
2017-09-23T11:32:03.968Z,19.30
2017-09-23T11:34:31.601Z,19.20
2017-09-23T11:36:59.263Z,19.40
2017-09-23T11:39:27.010Z,19.40
2017-09-23T11:41:55.413Z,19.60
2017-09-23T11:44:22.991Z,19.60
2017-09-23T11:46:50.540Z,19.60
2017-09-23T11:49:18.168Z,19.60
2017-09-23T11:51:45.756Z,19.70
2017-09-23T11:54:13.328Z,19.80
2017-09-23T11:56:40.872Z,19.90
2017-09-23T11:59:08.449Z,19.90
2017-09-23T12:01:36.767Z,19.90
2017-09-23T12:04:04.375Z,19.90
2017-09-23T12:06:31.950Z,19.70
2017-09-23T12:08:59.555Z,19.60
2017-09-23T12:11:27.141Z,19.70
2017-09-23T12:13:54.769Z,19.90
2017-09-23T12:16:22.314Z,19.90
2017-09-23T12:18:49.919Z,19.70
2017-09-23T12:21:18.231Z,19.90
2017-09-23T12:23:45.826Z,19.90
2017-09-23T12:26:13.356Z,20.10
2017-09-23T12:28:40.903Z,20.20
2017-09-23T12:31:08.486Z,20.30
2017-09-23T12:33:36.021Z,20.20
2017-09-23T12:36:04.369Z,19.90
2017-09-23T12:38:31.972Z,19.90
2017-09-23T12:40:59.530Z,19.80
2017-09-23T12:43:27.158Z,19.80
2017-09-23T12:45:54.775Z,19.70
2017-09-23T12:48:22.360Z,19.80
2017-09-23T12:50:49.923Z,19.80
2017-09-23T12:53:17.517Z,19.80
2017-09-23T12:55:45.064Z,19.80
2017-09-23T12:58:12.645Z,20.00
2017-09-23T13:00:40.200Z,20.10
2017-09-23T13:03:07.744Z,20.10
2017-09-23T13:05:35.315Z,20.10
2017-09-23T13:08:02.899Z,20.10
2017-09-23T13:10:30.459Z,19.90
2017-09-23T13:12:58.039Z,19.90
2017-09-23T13:15:25.671Z,19.90
2017-09-23T13:17:53.232Z,19.80
2017-09-23T13:20:20.832Z,19.90
2017-09-23T13:22:48.425Z,20.00
2017-09-23T13:25:16.006Z,20.20
2017-09-23T13:27:44.310Z,20.60
2017-09-23T13:30:11.896Z,20.60
2017-09-23T13:32:40.216Z,20.90
2017-09-23T13:35:07.799Z,20.90
2017-09-23T13:37:35.336Z,21.00
2017-09-23T13:40:02.936Z,21.10
2017-09-23T13:42:30.577Z,21.20
2017-09-23T13:44:58.236Z,21.10
2017-09-23T13:47:25.891Z,21.20
2017-09-23T13:49:53.496Z,21.30
2017-09-23T13:52:21.049Z,21.30
2017-09-23T13:54:48.652Z,21.40
2017-09-23T13:57:16.183Z,21.40
2017-09-23T13:59:43.746Z,21.50
2017-09-23T14:02:11.288Z,21.50
2017-09-23T14:04:38.867Z,21.60
2017-09-23T14:07:06.404Z,21.60
2017-09-23T14:09:34.741Z,21.70
2017-09-23T14:12:02.316Z,21.70
2017-09-23T14:14:30.692Z,21.80
2017-09-23T14:16:58.314Z,21.80
2017-09-23T14:19:26.694Z,22.00
2017-09-23T14:21:54.838Z,22.00
2017-09-23T14:24:22.448Z,22.10
2017-09-23T14:26:49.992Z,22.30
2017-09-23T14:29:18.398Z,22.30
2017-09-23T14:31:46.719Z,23.30
2017-09-23T14:34:15.091Z,23.50
2017-09-23T14:36:42.639Z,23.50
2017-09-23T14:39:10.194Z,23.30
2017-09-23T14:41:37.777Z,22.80
2017-09-23T14:44:05.328Z,22.40
2017-09-23T14:46:32.908Z,22.10
2017-09-23T14:49:00.460Z,21.70
2017-09-23T14:51:28.051Z,21.30
2017-09-23T14:53:55.617Z,21.00
2017-09-23T14:56:23.224Z,20.70
2017-09-23T14:58:50.774Z,20.50
2017-09-23T15:01:18.351Z,20.20
2017-09-23T15:03:46.713Z,20.00
2017-09-23T15:06:15.822Z,19.70
2017-09-23T15:08:43.418Z,19.40
2017-09-23T15:11:11.825Z,19.10
2017-09-23T15:13:39.364Z,19.10
2017-09-23T15:16:07.088Z,19.00
2017-09-23T15:18:34.644Z,18.90
2017-09-23T15:21:02.225Z,18.80
2017-09-23T15:23:29.789Z,18.80
2017-09-23T15:25:57.479Z,18.60
2017-09-23T15:28:25.121Z,18.50
2017-09-23T15:30:52.773Z,18.50
2017-09-23T15:33:21.420Z,18.20
2017-09-23T15:35:49.874Z,18.10
2017-09-23T15:38:17.493Z,18.10
2017-09-23T15:40:45.129Z,18.10
2017-09-23T15:43:12.747Z,18.00
2017-09-23T15:45:40.421Z,17.90
2017-09-23T15:48:07.955Z,17.80
2017-09-23T15:50:35.528Z,17.70
2017-09-23T15:53:03.093Z,17.70
2017-09-23T15:55:31.488Z,17.70
2017-09-23T15:57:59.036Z,17.60
2017-09-23T16:00:27.412Z,17.50
2017-09-23T16:02:55.033Z,17.40
2017-09-23T16:05:22.592Z,17.40
2017-09-23T16:07:50.199Z,17.30
2017-09-23T16:10:17.760Z,17.30
2017-09-23T16:12:46.118Z,17.20
2017-09-23T16:15:13.661Z,17.20
2017-09-23T16:17:41.234Z,17.20
2017-09-23T16:20:09.526Z,17.10
2017-09-23T16:22:37.091Z,17.10
2017-09-23T16:25:04.625Z,17.10
2017-09-23T16:27:32.244Z,17.00
2017-09-23T16:29:59.813Z,16.90
2017-09-23T16:32:27.422Z,16.80
2017-09-23T16:34:55.767Z,16.80
2017-09-23T16:37:23.338Z,16.80
2017-09-23T16:39:50.894Z,16.80
2017-09-23T16:42:18.495Z,16.80
2017-09-23T16:44:46.072Z,16.70
2017-09-23T16:47:14.434Z,16.50
2017-09-23T16:49:42.743Z,16.50
2017-09-23T16:52:10.316Z,16.50
2017-09-23T16:54:37.863Z,16.50
2017-09-23T16:57:05.476Z,16.40
2017-09-23T16:59:33.078Z,16.30
2017-09-23T17:02:01.395Z,16.10
2017-09-23T17:04:28.993Z,16.10
2017-09-23T17:06:56.625Z,16.10
2017-09-23T17:09:24.278Z,16.00
2017-09-23T17:11:51.870Z,16.00
2017-09-23T17:14:19.516Z,15.90
2017-09-23T17:16:47.091Z,15.90
2017-09-23T17:19:14.719Z,15.90
2017-09-23T17:21:42.433Z,15.90
2017-09-23T17:24:10.016Z,15.80
2017-09-23T17:26:37.618Z,15.80
2017-09-23T17:29:05.209Z,15.80
2017-09-23T17:31:32.828Z,15.70
2017-09-23T17:34:00.452Z,15.60
2017-09-23T17:36:28.129Z,15.50
2017-09-23T17:38:55.852Z,15.40
2017-09-23T17:41:23.403Z,15.40
2017-09-23T17:43:51.025Z,15.50
2017-09-23T17:46:19.383Z,15.30
2017-09-23T17:48:47.813Z,15.30
2017-09-23T17:51:15.401Z,15.20
2017-09-23T17:53:43.734Z,15.20
2017-09-23T17:56:11.308Z,15.20
2017-09-23T17:58:40.514Z,15.20
2017-09-23T18:01:08.869Z,15.20
2017-09-23T18:03:36.475Z,15.30
2017-09-23T18:06:04.011Z,15.00
2017-09-23T18:08:31.583Z,15.00
2017-09-23T18:10:59.136Z,14.90
2017-09-23T18:13:27.500Z,15.00
2017-09-23T18:15:55.837Z,14.90
2017-09-23T18:18:23.415Z,14.90
2017-09-23T18:20:51.719Z,15.00
2017-09-23T18:23:19.301Z,15.00
2017-09-23T18:25:46.847Z,15.00
2017-09-23T18:28:14.434Z,14.90
2017-09-23T18:30:41.979Z,14.90
2017-09-23T18:33:09.657Z,14.90
2017-09-23T18:35:37.203Z,14.90
2017-09-23T18:38:04.811Z,14.80
2017-09-23T18:40:32.457Z,14.70
2017-09-23T18:43:00.036Z,14.70
2017-09-23T18:45:27.600Z,14.70
2017-09-23T18:47:55.225Z,14.70
2017-09-23T18:50:22.768Z,14.70
2017-09-23T18:52:50.332Z,14.70
2017-09-23T18:55:17.868Z,14.80
2017-09-23T18:57:45.427Z,14.80
2017-09-23T19:00:12.967Z,14.80
2017-09-23T19:02:40.512Z,14.70
2017-09-23T19:05:08.092Z,14.70
2017-09-23T19:07:36.411Z,14.70
2017-09-23T19:10:03.964Z,14.70
2017-09-23T19:12:31.509Z,14.70
2017-09-23T19:14:59.071Z,14.70
2017-09-23T19:17:26.636Z,14.80
2017-09-23T19:19:54.974Z,14.90
2017-09-23T19:22:22.528Z,14.90
2017-09-23T19:24:50.091Z,15.00
2017-09-23T19:27:18.390Z,15.00
2017-09-23T19:29:45.970Z,15.00
2017-09-23T19:32:13.516Z,15.00
2017-09-23T19:34:41.099Z,15.10
2017-09-23T19:37:08.642Z,14.80
2017-09-23T19:39:36.965Z,14.80
2017-09-23T19:42:04.538Z,14.70
2017-09-23T19:44:32.848Z,14.90
2017-09-23T19:47:00.402Z,14.80
2017-09-23T19:49:27.960Z,14.80
2017-09-23T19:51:55.533Z,14.70
2017-09-23T19:54:23.067Z,14.70
2017-09-23T19:56:50.637Z,14.70
2017-09-23T19:59:18.947Z,14.70
2017-09-23T20:01:46.499Z,14.70
2017-09-23T20:04:14.055Z,14.50
2017-09-23T20:06:41.609Z,14.60
2017-09-23T20:09:09.164Z,14.50
2017-09-23T20:11:36.723Z,14.40
2017-09-23T20:14:05.040Z,14.50
2017-09-23T20:16:32.725Z,14.50
2017-09-23T20:19:01.036Z,14.50
2017-09-23T20:21:28.587Z,14.50
2017-09-23T20:23:56.171Z,14.50
2017-09-23T20:26:23.730Z,14.60
2017-09-23T20:28:51.331Z,14.60
2017-09-23T20:31:18.870Z,14.50
2017-09-23T20:33:46.477Z,14.50
2017-09-23T20:36:14.791Z,14.50
2017-09-23T20:38:42.368Z,14.50
2017-09-23T20:41:10.815Z,14.60
2017-09-23T20:43:38.361Z,14.60
2017-09-23T20:46:05.899Z,14.60
2017-09-23T20:48:33.496Z,14.50
2017-09-23T20:51:01.039Z,14.50
2017-09-23T20:53:29.413Z,14.50
2017-09-23T20:55:57.035Z,14.50
2017-09-23T20:58:25.357Z,14.50
2017-09-23T21:00:52.936Z,14.50
2017-09-23T21:03:21.235Z,14.40
2017-09-23T21:05:48.808Z,14.40
2017-09-23T21:08:16.360Z,14.40
2017-09-23T21:10:44.182Z,14.50
2017-09-23T21:13:11.874Z,14.50
2017-09-23T21:15:40.317Z,14.60
2017-09-23T21:18:07.959Z,14.60
2017-09-23T21:20:35.608Z,14.60
2017-09-23T21:23:03.210Z,14.60
2017-09-23T21:25:30.839Z,14.60
2017-09-23T21:27:59.152Z,14.70
2017-09-23T21:30:26.764Z,14.70
2017-09-23T21:32:54.306Z,14.60
2017-09-23T21:35:21.843Z,14.60
2017-09-23T21:37:50.208Z,14.60
2017-09-23T21:40:18.521Z,14.70
2017-09-23T21:42:46.110Z,14.70
2017-09-23T21:45:13.686Z,14.70
2017-09-23T21:47:41.264Z,14.80
2017-09-23T21:50:08.803Z,14.80
2017-09-23T21:52:36.372Z,14.80
2017-09-23T21:55:03.915Z,14.80
2017-09-23T21:57:31.689Z,14.80
2017-09-23T21:59:59.433Z,14.80
2017-09-23T22:02:27.044Z,14.80
2017-09-23T22:04:54.617Z,14.80
2017-09-23T22:07:22.987Z,14.80
2017-09-23T22:09:51.298Z,14.60
2017-09-23T22:12:18.856Z,14.60
2017-09-23T22:14:47.168Z,14.50
2017-09-23T22:17:15.540Z,14.40
2017-09-23T22:19:43.136Z,14.40
2017-09-23T22:22:10.889Z,14.30
2017-09-23T22:24:38.579Z,14.30
2017-09-23T22:27:06.900Z,14.10
2017-09-23T22:29:37.757Z,14.10
2017-09-23T22:32:05.404Z,14.20
2017-09-23T22:34:33.964Z,14.10
2017-09-23T22:37:02.423Z,14.00
2017-09-23T22:39:30.054Z,14.00
2017-09-23T22:41:57.628Z,14.10
2017-09-23T22:44:26.040Z,13.80
2017-09-23T22:46:53.881Z,13.80
2017-09-23T22:49:23.514Z,13.80
2017-09-23T22:51:51.252Z,14.00
2017-09-23T22:54:19.851Z,13.80
2017-09-23T22:56:47.994Z,13.70
2017-09-23T22:59:16.389Z,13.70
2017-09-23T23:01:43.934Z,13.70
2017-09-23T23:04:12.311Z,13.70
2017-09-23T23:06:39.964Z,13.70
2017-09-23T23:09:07.559Z,13.70
2017-09-23T23:11:35.103Z,13.70
2017-09-23T23:14:02.717Z,13.70
2017-09-23T23:16:30.675Z,13.50
2017-09-23T23:18:58.524Z,13.60
2017-09-23T23:21:26.358Z,13.60
2017-09-23T23:23:53.936Z,13.50
2017-09-23T23:26:21.629Z,13.40
2017-09-23T23:28:50.040Z,13.50
2017-09-23T23:31:17.700Z,13.50
2017-09-23T23:33:45.338Z,13.50
2017-09-23T23:36:14.409Z,13.40
2017-09-23T23:38:42.072Z,13.40
2017-09-23T23:41:09.736Z,13.40
2017-09-23T23:43:37.412Z,13.50
2017-09-23T23:46:05.908Z,13.30
2017-09-23T23:48:34.294Z,13.30
2017-09-23T23:51:01.970Z,13.30
2017-09-23T23:53:29.672Z,13.30
2017-09-23T23:55:57.984Z,13.20
2017-09-23T23:58:27.174Z,13.20
